1CA4 weather

Aha-Quin Airport
Blythe, California, United States

Public forecast

Using degrees Fahrenheit for public forecast. Weather courtesy of forecast.io.

Closest aviation weather report (METAR) to Aha-Quin Airport

Closest report is Blythe Airport, 17.8 nm (32.9 km) SSW. Retrieved 2019/12/13 09:52 UTC (16 minutes ago):

KBLH 130952Z AUTO 00000KT 10SM CLR 09/06 A3017 RMK AO2 SLP215 T00890061

Closest aviation forecast (TAF) to Aha-Quin Airport

Closest forecast is Blythe Airport, 17.8 nm (32.9 km) SSW. Retrieved 2019/12/13 06:22 UTC (4 hours ago):

TAF KBLH 130520Z 1306/1406 VRB04KT P6SM FEW250